createdAt,value
2019-02-25T00:00:03.360Z,-1.17
2019-02-25T00:10:02.399Z,-1.29
2019-02-25T00:20:02.363Z,-1.27
2019-02-25T00:30:03.092Z,-1.28
2019-02-25T00:40:03.023Z,-1.35
2019-02-25T00:50:03.190Z,-1.42
2019-02-25T01:00:03.030Z,-1.30
2019-02-25T01:10:02.407Z,-1.89
2019-02-25T01:20:02.604Z,-1.69
2019-02-25T01:30:03.557Z,-1.49
2019-02-25T01:40:02.630Z,-1.22
2019-02-25T01:50:02.567Z,-0.97
2019-02-25T02:00:03.400Z,-1.30
2019-02-25T02:10:03.237Z,-1.57
2019-02-25T02:20:02.389Z,-1.43
2019-02-25T02:30:03.395Z,-1.47
2019-02-25T02:40:02.646Z,-1.72
2019-02-25T02:50:02.443Z,-1.45
2019-02-25T03:00:03.021Z,-1.57
2019-02-25T03:10:02.957Z,-1.74
2019-02-25T03:20:02.576Z,-1.67
2019-02-25T03:30:03.662Z,-1.62
2019-02-25T03:40:02.858Z,-1.51
2019-02-25T03:50:02.718Z,-1.84
2019-02-25T04:00:03.222Z,-2.50
2019-02-25T04:10:03.452Z,-2.63
2019-02-25T04:20:02.369Z,-2.83
2019-02-25T04:30:03.157Z,-2.92
2019-02-25T04:40:03.321Z,-2.57
2019-02-25T04:50:02.278Z,-2.40
2019-02-25T05:00:02.866Z,-2.62
2019-02-25T05:10:02.630Z,-2.64
2019-02-25T05:20:02.745Z,-2.90
2019-02-25T05:30:03.251Z,-2.95
2019-02-25T05:40:03.242Z,-2.42
2019-02-25T05:50:02.249Z,-1.59
2019-02-25T06:00:02.748Z,-1.37
2019-02-25T06:10:02.603Z,-1.03
2019-02-25T06:20:03.259Z,-0.60
2019-02-25T06:30:03.070Z,-0.18
2019-02-25T06:40:03.055Z,0.29
2019-02-25T06:50:02.808Z,0.74
2019-02-25T07:00:04.042Z,1.37
2019-02-25T07:10:02.582Z,2.14
2019-02-25T07:20:02.829Z,2.13
2019-02-25T07:30:03.072Z,2.91
2019-02-25T07:40:02.968Z,3.18
2019-02-25T07:50:03.963Z,4.52
2019-02-25T08:00:03.522Z,4.57
2019-02-25T08:10:02.456Z,4.66
2019-02-25T08:20:02.925Z,5.13
2019-02-25T08:30:06.077Z,5.73
2019-02-25T08:40:02.477Z,6.41
2019-02-25T08:50:02.525Z,6.08
2019-02-25T09:00:03.600Z,5.97
2019-02-25T09:10:03.138Z,5.50
2019-02-25T09:20:02.102Z,7.12
2019-02-25T09:30:03.243Z,6.98
2019-02-25T09:40:02.302Z,8.22
2019-02-25T09:50:02.282Z,8.25
2019-02-25T10:00:03.722Z,7.50
2019-02-25T10:10:02.750Z,8.67
2019-02-25T10:20:02.938Z,8.37
2019-02-25T10:30:04.097Z,9.38
2019-02-25T10:40:02.367Z,9.49
2019-02-25T10:50:03.208Z,10.81
2019-02-25T11:00:04.948Z,9.16
2019-02-25T11:10:02.661Z,10.55
2019-02-25T11:20:03.761Z,10.86
2019-02-25T11:30:03.347Z,10.88
2019-02-25T11:40:04.364Z,11.31
2019-02-25T11:50:02.940Z,12.01
2019-02-25T12:00:03.495Z,12.01
2019-02-25T12:10:02.454Z,12.55
2019-02-25T12:20:02.911Z,13.28
2019-02-25T12:30:03.286Z,13.34
2019-02-25T12:40:06.696Z,12.67
2019-02-25T12:50:02.625Z,13.65
2019-02-25T13:00:03.515Z,13.23
2019-02-25T13:10:02.776Z,12.59
2019-02-25T13:20:03.278Z,13.12
2019-02-25T13:30:03.290Z,12.73
2019-02-25T13:40:04.910Z,13.26
2019-02-25T13:50:02.757Z,13.28
2019-02-25T14:00:02.978Z,13.57
2019-02-25T14:10:02.905Z,13.35
2019-02-25T14:20:02.314Z,13.44
2019-02-25T14:30:03.182Z,13.02
2019-02-25T14:40:04.036Z,13.35
2019-02-25T14:50:02.832Z,13.63
2019-02-25T15:00:03.392Z,13.23
2019-02-25T15:10:02.904Z,13.14
2019-02-25T15:20:02.901Z,13.38
2019-02-25T15:30:03.320Z,13.26
2019-02-25T15:40:03.185Z,13.05
2019-02-25T15:50:04.320Z,12.75
2019-02-25T16:00:03.531Z,12.71
2019-02-25T16:10:04.727Z,12.36
2019-02-25T16:20:04.338Z,11.72
2019-02-25T16:30:05.270Z,11.23
2019-02-25T16:40:05.757Z,10.97
2019-02-25T16:50:03.216Z,10.64
2019-02-25T17:00:04.934Z,10.45
2019-02-25T17:10:03.296Z,10.25
2019-02-25T17:20:02.678Z,10.09
2019-02-25T17:30:03.527Z,9.83
2019-02-25T17:40:04.333Z,9.65
2019-02-25T17:50:04.385Z,9.20
2019-02-25T18:00:02.991Z,8.80
2019-02-25T18:10:03.442Z,8.64
2019-02-25T18:20:02.221Z,7.54
2019-02-25T18:30:03.227Z,7.80
2019-02-25T18:40:02.842Z,6.97
2019-02-25T18:50:02.781Z,7.01
2019-02-25T19:00:04.370Z,7.30
2019-02-25T19:10:02.398Z,6.57
2019-02-25T19:20:02.413Z,6.10
2019-02-25T19:30:03.329Z,5.83
2019-02-25T19:40:05.285Z,5.65
2019-02-25T19:50:05.033Z,5.40
2019-02-25T20:00:03.451Z,5.22
2019-02-25T20:10:02.827Z,5.68
2019-02-25T20:20:04.766Z,5.15
2019-02-25T20:30:04.957Z,5.04
2019-02-25T20:40:02.696Z,4.53
2019-02-25T20:50:03.764Z,4.31
2019-02-25T21:00:04.168Z,3.87
2019-02-25T21:10:05.996Z,4.33
2019-02-25T21:20:03.228Z,4.23
2019-02-25T21:30:03.957Z,4.17
2019-02-25T21:40:04.702Z,4.09
2019-02-25T21:50:03.957Z,4.05
2019-02-25T22:00:03.394Z,3.85
2019-02-25T22:10:04.189Z,3.96
2019-02-25T22:20:04.690Z,3.92
2019-02-25T22:30:04.715Z,3.70
2019-02-25T22:40:02.431Z,3.50
2019-02-25T22:50:04.078Z,3.39
2019-02-25T23:00:05.928Z,3.50
2019-02-25T23:10:02.996Z,3.39
2019-02-25T23:20:05.020Z,3.28
2019-02-25T23:30:03.744Z,3.00
2019-02-25T23:40:05.054Z,2.41
2019-02-25T23:50:04.014Z,2.51
